sensor_id;sensor_type;location;lat;lon;timestamp;temperature;humidity
37281;DHT22;23169;41.804;12.596;2023-04-03T00:01:17;11.50;19.90
37281;DHT22;23169;41.804;12.596;2023-04-03T00:03:46;11.60;19.20
37281;DHT22;23169;41.804;12.596;2023-04-03T00:06:15;11.60;18.30
37281;DHT22;23169;41.804;12.596;2023-04-03T00:08:44;11.60;15.80
37281;DHT22;23169;41.804;12.596;2023-04-03T00:11:13;11.60;15.60
37281;DHT22;23169;41.804;12.596;2023-04-03T00:13:43;11.60;15.20
37281;DHT22;23169;41.804;12.596;2023-04-03T00:16:12;11.60;14.80
37281;DHT22;23169;41.804;12.596;2023-04-03T00:18:41;11.60;15.20
37281;DHT22;23169;41.804;12.596;2023-04-03T00:21:12;11.60;14.80
37281;DHT22;23169;41.804;12.596;2023-04-03T00:23:42;11.60;14.50
37281;DHT22;23169;41.804;12.596;2023-04-03T00:26:10;11.60;69.90
37281;DHT22;23169;41.804;12.596;2023-04-03T00:28:39;11.50;16.10
37281;DHT22;23169;41.804;12.596;2023-04-03T00:31:08;11.50;14.00
37281;DHT22;23169;41.804;12.596;2023-04-03T00:33:38;11.50;13.50
37281;DHT22;23169;41.804;12.596;2023-04-03T00:36:10;11.60;13.00
37281;DHT22;23169;41.804;12.596;2023-04-03T00:38:39;11.60;11.40
37281;DHT22;23169;41.804;12.596;2023-04-03T00:41:08;11.60;12.10
37281;DHT22;23169;41.804;12.596;2023-04-03T00:43:37;11.60;11.60
37281;DHT22;23169;41.804;12.596;2023-04-03T00:46:06;11.70;11.70
37281;DHT22;23169;41.804;12.596;2023-04-03T00:48:45;11.70;11.90
37281;DHT22;23169;41.804;12.596;2023-04-03T00:51:22;11.70;11.90
37281;DHT22;23169;41.804;12.596;2023-04-03T00:53:58;11.40;76.70
37281;DHT22;23169;41.804;12.596;2023-04-03T00:56:29;11.70;9.10
37281;DHT22;23169;41.804;12.596;2023-04-03T00:58:59;11.70;7.30
37281;DHT22;23169;41.804;12.596;2023-04-03T01:01:29;11.60;6.30
37281;DHT22;23169;41.804;12.596;2023-04-03T01:03:59;11.60;6.00
37281;DHT22;23169;41.804;12.596;2023-04-03T01:06:32;11.60;5.70
37281;DHT22;23169;41.804;12.596;2023-04-03T01:09:03;11.70;5.50
37281;DHT22;23169;41.804;12.596;2023-04-03T01:11:33;11.70;4.60
37281;DHT22;23169;41.804;12.596;2023-04-03T01:14:01;11.60;4.70
37281;DHT22;23169;41.804;12.596;2023-04-03T01:16:30;11.60;4.60
37281;DHT22;23169;41.804;12.596;2023-04-03T01:19:00;11.50;6.80
37281;DHT22;23169;41.804;12.596;2023-04-03T01:22:05;11.50;8.50
37281;DHT22;23169;41.804;12.596;2023-04-03T01:24:39;11.40;9.00
37281;DHT22;23169;41.804;12.596;2023-04-03T01:27:09;11.40;9.80
37281;DHT22;23169;41.804;12.596;2023-04-03T01:29:39;11.40;10.10
37281;DHT22;23169;41.804;12.596;2023-04-03T01:32:08;11.40;10.00
37281;DHT22;23169;41.804;12.596;2023-04-03T01:34:36;11.40;10.50
37281;DHT22;23169;41.804;12.596;2023-04-03T01:37:05;11.40;10.30
37281;DHT22;23169;41.804;12.596;2023-04-03T01:39:35;11.40;9.80
37281;DHT22;23169;41.804;12.596;2023-04-03T01:42:03;11.40;10.90
37281;DHT22;23169;41.804;12.596;2023-04-03T01:44:34;11.40;8.20
37281;DHT22;23169;41.804;12.596;2023-04-03T01:47:06;11.40;7.60
37281;DHT22;23169;41.804;12.596;2023-04-03T01:49:35;11.40;3.10
37281;DHT22;23169;41.804;12.596;2023-04-03T01:52:03;11.40;2.80
37281;DHT22;23169;41.804;12.596;2023-04-03T01:54:32;11.50;1.00
37281;DHT22;23169;41.804;12.596;2023-04-03T01:57:00;11.50;1.00
37281;DHT22;23169;41.804;12.596;2023-04-03T01:59:32;11.50;1.00
37281;DHT22;23169;41.804;12.596;2023-04-03T02:02:00;11.40;1.00
37281;DHT22;23169;41.804;12.596;2023-04-03T02:04:30;11.40;1.00
37281;DHT22;23169;41.804;12.596;2023-04-03T02:06:58;11.40;1.00
37281;DHT22;23169;41.804;12.596;2023-04-03T02:09:27;11.40;1.00
37281;DHT22;23169;41.804;12.596;2023-04-03T02:11:56;11.40;1.00
37281;DHT22;23169;41.804;12.596;2023-04-03T02:14:25;11.30;1.00
37281;DHT22;23169;41.804;12.596;2023-04-03T02:16:56;11.30;1.00
37281;DHT22;23169;41.804;12.596;2023-04-03T02:19:24;11.20;1.00
37281;DHT22;23169;41.804;12.596;2023-04-03T02:21:53;11.20;2.70
37281;DHT22;23169;41.804;12.596;2023-04-03T02:24:22;11.20;1.00
37281;DHT22;23169;41.804;12.596;2023-04-03T02:26:50;11.10;1.00
37281;DHT22;23169;41.804;12.596;2023-04-03T02:29:19;11.10;1.00
37281;DHT22;23169;41.804;12.596;2023-04-03T02:31:49;11.60;57.20
37281;DHT22;23169;41.804;12.596;2023-04-03T02:34:19;11.10;56.50
37281;DHT22;23169;41.804;12.596;2023-04-03T02:36:48;11.30;61.80
37281;DHT22;23169;41.804;12.596;2023-04-03T02:39:16;10.90;1.00
37281;DHT22;23169;41.804;12.596;2023-04-03T02:41:46;10.90;1.00
37281;DHT22;23169;41.804;12.596;2023-04-03T02:44:15;10.90;1.00
37281;DHT22;23169;41.804;12.596;2023-04-03T02:46:44;10.90;1.00
37281;DHT22;23169;41.804;12.596;2023-04-03T02:49:14;10.90;1.00
37281;DHT22;23169;41.804;12.596;2023-04-03T02:51:43;10.90;1.00
37281;DHT22;23169;41.804;12.596;2023-04-03T02:54:12;10.90;1.00
37281;DHT22;23169;41.804;12.596;2023-04-03T02:56:42;10.80;1.00
37281;DHT22;23169;41.804;12.596;2023-04-03T02:59:11;10.80;1.00
37281;DHT22;23169;41.804;12.596;2023-04-03T03:01:39;10.80;1.00
37281;DHT22;23169;41.804;12.596;2023-04-03T03:04:08;10.80;1.00
37281;DHT22;23169;41.804;12.596;2023-04-03T03:06:40;10.80;1.00
37281;DHT22;23169;41.804;12.596;2023-04-03T03:09:17;10.90;1.00
37281;DHT22;23169;41.804;12.596;2023-04-03T03:11:50;10.90;1.00
37281;DHT22;23169;41.804;12.596;2023-04-03T03:14:20;10.80;1.00
37281;DHT22;23169;41.804;12.596;2023-04-03T03:16:49;10.80;1.00
37281;DHT22;23169;41.804;12.596;2023-04-03T03:19:19;10.80;1.00
37281;DHT22;23169;41.804;12.596;2023-04-03T03:21:54;10.90;1.00
37281;DHT22;23169;41.804;12.596;2023-04-03T03:24:23;10.80;1.00
37281;DHT22;23169;41.804;12.596;2023-04-03T03:27:09;10.80;1.00
37281;DHT22;23169;41.804;12.596;2023-04-03T03:29:38;10.70;1.00
37281;DHT22;23169;41.804;12.596;2023-04-03T03:32:07;10.30;64.50
37281;DHT22;23169;41.804;12.596;2023-04-03T03:34:37;10.60;1.00
37281;DHT22;23169;41.804;12.596;2023-04-03T03:37:07;10.50;1.00
37281;DHT22;23169;41.804;12.596;2023-04-03T03:39:40;10.50;1.00
37281;DHT22;23169;41.804;12.596;2023-04-03T03:42:09;10.50;62.80
37281;DHT22;23169;41.804;12.596;2023-04-03T03:44:40;10.30;1.00
37281;DHT22;23169;41.804;12.596;2023-04-03T03:49:39;10.40;1.00
37281;DHT22;23169;41.804;12.596;2023-04-03T03:52:09;10.40;1.00
37281;DHT22;23169;41.804;12.596;2023-04-03T03:54:38;10.50;1.00
37281;DHT22;23169;41.804;12.596;2023-04-03T03:57:08;10.60;1.00
37281;DHT22;23169;41.804;12.596;2023-04-03T03:59:37;10.90;75.90
37281;DHT22;23169;41.804;12.596;2023-04-03T04:02:06;10.50;1.00
37281;DHT22;23169;41.804;12.596;2023-04-03T04:04:35;10.70;46.70
37281;DHT22;23169;41.804;12.596;2023-04-03T04:07:04;10.40;1.00
37281;DHT22;23169;41.804;12.596;2023-04-03T04:09:32;10.40;3.40
37281;DHT22;23169;41.804;12.596;2023-04-03T04:12:01;10.50;1.00
37281;DHT22;23169;41.804;12.596;2023-04-03T04:14:29;10.60;75.40
37281;DHT22;23169;41.804;12.596;2023-04-03T04:16:58;10.90;54.50
37281;DHT22;23169;41.804;12.596;2023-04-03T04:19:26;10.40;1.00
37281;DHT22;23169;41.804;12.596;2023-04-03T04:21:55;10.40;1.00
37281;DHT22;23169;41.804;12.596;2023-04-03T04:24:23;10.40;1.00
37281;DHT22;23169;41.804;12.596;2023-04-03T04:26:51;10.40;1.00
37281;DHT22;23169;41.804;12.596;2023-04-03T04:29:20;10.40;1.00
37281;DHT22;23169;41.804;12.596;2023-04-03T04:31:48;10.30;1.00
37281;DHT22;23169;41.804;12.596;2023-04-03T04:34:17;10.30;1.00
37281;DHT22;23169;41.804;12.596;2023-04-03T04:36:46;10.20;1.00
37281;DHT22;23169;41.804;12.596;2023-04-03T04:39:14;10.20;1.00
37281;DHT22;23169;41.804;12.596;2023-04-03T04:41:43;10.20;1.00
37281;DHT22;23169;41.804;12.596;2023-04-03T04:44:11;10.20;1.00
37281;DHT22;23169;41.804;12.596;2023-04-03T04:46:40;10.20;1.00
37281;DHT22;23169;41.804;12.596;2023-04-03T04:49:11;10.30;1.00
37281;DHT22;23169;41.804;12.596;2023-04-03T04:51:39;10.20;1.00
37281;DHT22;23169;41.804;12.596;2023-04-03T04:54:08;10.20;1.00
37281;DHT22;23169;41.804;12.596;2023-04-03T04:56:38;10.10;1.00
37281;DHT22;23169;41.804;12.596;2023-04-03T04:59:06;10.00;1.00
37281;DHT22;23169;41.804;12.596;2023-04-03T05:01:34;10.10;1.00
37281;DHT22;23169;41.804;12.596;2023-04-03T05:04:04;10.10;1.00
37281;DHT22;23169;41.804;12.596;2023-04-03T05:06:32;10.10;1.00
37281;DHT22;23169;41.804;12.596;2023-04-03T05:09:03;10.10;1.00
37281;DHT22;23169;41.804;12.596;2023-04-03T05:11:33;10.20;1.00
37281;DHT22;23169;41.804;12.596;2023-04-03T05:14:01;10.20;1.00
37281;DHT22;23169;41.804;12.596;2023-04-03T05:16:31;10.30;1.00
37281;DHT22;23169;41.804;12.596;2023-04-03T05:18:59;10.30;1.00
37281;DHT22;23169;41.804;12.596;2023-04-03T05:21:28;10.40;1.00
37281;DHT22;23169;41.804;12.596;2023-04-03T05:24:01;10.30;1.00
37281;DHT22;23169;41.804;12.596;2023-04-03T05:26:31;10.30;1.00
37281;DHT22;23169;41.804;12.596;2023-04-03T05:28:59;10.40;1.00
37281;DHT22;23169;41.804;12.596;2023-04-03T05:31:29;10.40;1.00
37281;DHT22;23169;41.804;12.596;2023-04-03T05:33:58;10.40;1.00
37281;DHT22;23169;41.804;12.596;2023-04-03T05:36:27;10.40;1.00
37281;DHT22;23169;41.804;12.596;2023-04-03T05:38:58;11.00;50.00
37281;DHT22;23169;41.804;12.596;2023-04-03T05:41:28;10.50;1.00
37281;DHT22;23169;41.804;12.596;2023-04-03T05:43:57;10.60;1.00
37281;DHT22;23169;41.804;12.596;2023-04-03T05:46:25;10.60;1.00
37281;DHT22;23169;41.804;12.596;2023-04-03T05:48:53;10.70;1.00
37281;DHT22;23169;41.804;12.596;2023-04-03T05:51:30;10.30;36.70
37281;DHT22;23169;41.804;12.596;2023-04-03T05:54:06;10.90;1.00
37281;DHT22;23169;41.804;12.596;2023-04-03T05:56:35;10.90;1.00
37281;DHT22;23169;41.804;12.596;2023-04-03T05:59:04;11.00;1.00
37281;DHT22;23169;41.804;12.596;2023-04-03T06:01:33;11.20;1.00
37281;DHT22;23169;41.804;12.596;2023-04-03T06:04:03;11.30;1.00
37281;DHT22;23169;41.804;12.596;2023-04-03T06:06:51;11.30;1.00
37281;DHT22;23169;41.804;12.596;2023-04-03T06:09:22;11.30;1.00
37281;DHT22;23169;41.804;12.596;2023-04-03T06:11:52;11.30;1.00
37281;DHT22;23169;41.804;12.596;2023-04-03T06:14:21;11.30;1.00
37281;DHT22;23169;41.804;12.596;2023-04-03T06:16:50;11.30;1.00
37281;DHT22;23169;41.804;12.596;2023-04-03T06:19:18;11.30;1.00
37281;DHT22;23169;41.804;12.596;2023-04-03T06:21:46;11.40;1.00
37281;DHT22;23169;41.804;12.596;2023-04-03T06:24:16;11.40;1.00
37281;DHT22;23169;41.804;12.596;2023-04-03T06:26:45;11.50;1.00
37281;DHT22;23169;41.804;12.596;2023-04-03T06:29:14;11.60;1.00
37281;DHT22;23169;41.804;12.596;2023-04-03T06:31:44;11.70;1.00
37281;DHT22;23169;41.804;12.596;2023-04-03T06:34:13;12.00;1.00
37281;DHT22;23169;41.804;12.596;2023-04-03T06:36:43;12.10;1.00
37281;DHT22;23169;41.804;12.596;2023-04-03T06:39:18;12.10;1.00
37281;DHT22;23169;41.804;12.596;2023-04-03T06:41:49;12.20;1.00
37281;DHT22;23169;41.804;12.596;2023-04-03T06:44:18;12.20;1.00
37281;DHT22;23169;41.804;12.596;2023-04-03T06:46:47;12.30;1.00
37281;DHT22;23169;41.804;12.596;2023-04-03T06:49:16;12.40;1.00
37281;DHT22;23169;41.804;12.596;2023-04-03T06:51:45;12.60;1.00
37281;DHT22;23169;41.804;12.596;2023-04-03T06:54:13;12.70;1.00
37281;DHT22;23169;41.804;12.596;2023-04-03T06:56:43;12.80;1.00
37281;DHT22;23169;41.804;12.596;2023-04-03T06:59:12;13.00;1.00
37281;DHT22;23169;41.804;12.596;2023-04-03T07:01:42;13.10;1.00
37281;DHT22;23169;41.804;12.596;2023-04-03T07:04:10;13.20;1.00
37281;DHT22;23169;41.804;12.596;2023-04-03T07:06:39;13.30;1.00
37281;DHT22;23169;41.804;12.596;2023-04-03T07:09:08;13.50;1.00
37281;DHT22;23169;41.804;12.596;2023-04-03T07:11:38;13.50;1.00
37281;DHT22;23169;41.804;12.596;2023-04-03T07:14:06;13.70;1.00
37281;DHT22;23169;41.804;12.596;2023-04-03T07:16:37;13.70;1.00
37281;DHT22;23169;41.804;12.596;2023-04-03T07:19:05;13.70;1.00
37281;DHT22;23169;41.804;12.596;2023-04-03T07:21:34;13.70;1.00
37281;DHT22;23169;41.804;12.596;2023-04-03T07:24:03;13.80;1.00
37281;DHT22;23169;41.804;12.596;2023-04-03T07:26:31;13.80;1.00
37281;DHT22;23169;41.804;12.596;2023-04-03T07:29:00;13.90;1.00
37281;DHT22;23169;41.804;12.596;2023-04-03T07:31:29;13.90;1.00
37281;DHT22;23169;41.804;12.596;2023-04-03T07:33:57;14.00;1.00
37281;DHT22;23169;41.804;12.596;2023-04-03T07:36:26;14.10;1.00
37281;DHT22;23169;41.804;12.596;2023-04-03T07:38:54;14.20;1.00
37281;DHT22;23169;41.804;12.596;2023-04-03T07:41:23;14.30;1.00
37281;DHT22;23169;41.804;12.596;2023-04-03T07:43:51;14.40;1.00
37281;DHT22;23169;41.804;12.596;2023-04-03T07:46:20;14.60;1.00
37281;DHT22;23169;41.804;12.596;2023-04-03T07:48:49;14.70;1.00
37281;DHT22;23169;41.804;12.596;2023-04-03T07:51:18;14.80;1.00
37281;DHT22;23169;41.804;12.596;2023-04-03T07:53:47;14.90;1.00
37281;DHT22;23169;41.804;12.596;2023-04-03T07:56:16;15.10;1.00
37281;DHT22;23169;41.804;12.596;2023-04-03T07:58:45;15.20;1.00
37281;DHT22;23169;41.804;12.596;2023-04-03T08:01:16;15.30;1.00
37281;DHT22;23169;41.804;12.596;2023-04-03T08:03:47;15.40;1.00
37281;DHT22;23169;41.804;12.596;2023-04-03T08:06:15;15.50;1.00
37281;DHT22;23169;41.804;12.596;2023-04-03T08:08:44;15.60;1.00
37281;DHT22;23169;41.804;12.596;2023-04-03T08:11:14;15.70;1.00
37281;DHT22;23169;41.804;12.596;2023-04-03T08:13:43;15.70;1.00
37281;DHT22;23169;41.804;12.596;2023-04-03T08:16:15;15.80;1.00
37281;DHT22;23169;41.804;12.596;2023-04-03T08:18:46;15.80;1.00
37281;DHT22;23169;41.804;12.596;2023-04-03T08:21:14;16.00;1.00
37281;DHT22;23169;41.804;12.596;2023-04-03T08:23:48;16.10;1.00
37281;DHT22;23169;41.804;12.596;2023-04-03T08:26:20;16.20;1.00
37281;DHT22;23169;41.804;12.596;2023-04-03T08:28:49;16.40;1.00
37281;DHT22;23169;41.804;12.596;2023-04-03T08:31:19;16.60;1.00
37281;DHT22;23169;41.804;12.596;2023-04-03T08:33:48;16.70;1.00
37281;DHT22;23169;41.804;12.596;2023-04-03T08:36:22;16.80;1.00
37281;DHT22;23169;41.804;12.596;2023-04-03T08:38:52;16.90;1.00
37281;DHT22;23169;41.804;12.596;2023-04-03T08:44:39;17.10;1.00
37281;DHT22;23169;41.804;12.596;2023-04-03T08:47:38;17.30;1.00
37281;DHT22;23169;41.804;12.596;2023-04-03T08:50:33;17.40;1.00
37281;DHT22;23169;41.804;12.596;2023-04-03T08:53:03;17.60;1.00
37281;DHT22;23169;41.804;12.596;2023-04-03T08:55:41;17.60;1.00
37281;DHT22;23169;41.804;12.596;2023-04-03T08:58:15;17.90;1.00
37281;DHT22;23169;41.804;12.596;2023-04-03T09:03:33;18.00;1.00
37281;DHT22;23169;41.804;12.596;2023-04-03T09:08:51;18.20;1.00
37281;DHT22;23169;41.804;12.596;2023-04-03T09:16:59;18.60;1.00
37281;DHT22;23169;41.804;12.596;2023-04-03T09:22:23;18.70;1.00
37281;DHT22;23169;41.804;12.596;2023-04-03T09:25:23;18.70;1.00
37281;DHT22;23169;41.804;12.596;2023-04-03T09:30:22;19.10;1.00
37281;DHT22;23169;41.804;12.596;2023-04-03T09:32:53;19.20;1.00
37281;DHT22;23169;41.804;12.596;2023-04-03T09:35:27;19.40;1.00
37281;DHT22;23169;41.804;12.596;2023-04-03T09:38:21;19.50;1.00
37281;DHT22;23169;41.804;12.596;2023-04-03T09:41:17;19.70;1.00
37281;DHT22;23169;41.804;12.596;2023-04-03T09:43:53;19.90;1.00
37281;DHT22;23169;41.804;12.596;2023-04-03T09:46:28;20.10;1.00
37281;DHT22;23169;41.804;12.596;2023-04-03T09:49:00;20.30;1.00
37281;DHT22;23169;41.804;12.596;2023-04-03T09:51:30;20.30;1.00
37281;DHT22;23169;41.804;12.596;2023-04-03T09:53:59;20.50;1.00
37281;DHT22;23169;41.804;12.596;2023-04-03T09:56:29;20.70;1.00
37281;DHT22;23169;41.804;12.596;2023-04-03T10:01:28;20.50;1.00
37281;DHT22;23169;41.804;12.596;2023-04-03T10:04:09;20.30;1.00
37281;DHT22;23169;41.804;12.596;2023-04-03T10:06:50;20.30;1.00
37281;DHT22;23169;41.804;12.596;2023-04-03T10:09:21;20.30;1.00
37281;DHT22;23169;41.804;12.596;2023-04-03T10:12:10;20.30;1.00
37281;DHT22;23169;41.804;12.596;2023-04-03T10:14:55;20.40;1.00
37281;DHT22;23169;41.804;12.596;2023-04-03T10:17:47;20.50;1.00
37281;DHT22;23169;41.804;12.596;2023-04-03T10:20:23;20.60;1.00
37281;DHT22;23169;41.804;12.596;2023-04-03T10:23:02;20.80;1.00
37281;DHT22;23169;41.804;12.596;2023-04-03T10:25:42;20.80;1.00
37281;DHT22;23169;41.804;12.596;2023-04-03T10:28:21;21.10;1.00
37281;DHT22;23169;41.804;12.596;2023-04-03T10:31:03;21.50;1.00
37281;DHT22;23169;41.804;12.596;2023-04-03T10:39:21;21.50;1.00
37281;DHT22;23169;41.804;12.596;2023-04-03T10:44:31;21.60;1.00
37281;DHT22;23169;41.804;12.596;2023-04-03T10:57:41;22.20;1.00
37281;DHT22;23169;41.804;12.596;2023-04-03T11:02:58;22.30;1.00
37281;DHT22;23169;41.804;12.596;2023-04-03T11:08:13;22.40;1.00
37281;DHT22;23169;41.804;12.596;2023-04-03T11:10:47;22.40;1.00
37281;DHT22;23169;41.804;12.596;2023-04-03T11:15:58;22.70;1.00
37281;DHT22;23169;41.804;12.596;2023-04-03T11:18:46;22.60;1.00
37281;DHT22;23169;41.804;12.596;2023-04-03T11:21:24;22.70;1.00
37281;DHT22;23169;41.804;12.596;2023-04-03T11:23:58;22.90;1.00
37281;DHT22;23169;41.804;12.596;2023-04-03T11:26:31;22.50;1.00
37281;DHT22;23169;41.804;12.596;2023-04-03T11:29:08;22.60;1.00
37281;DHT22;23169;41.804;12.596;2023-04-03T11:34:50;23.40;1.00
37281;DHT22;23169;41.804;12.596;2023-04-03T11:37:40;23.50;1.00
37281;DHT22;23169;41.804;12.596;2023-04-03T11:45:36;22.90;1.00
37281;DHT22;23169;41.804;12.596;2023-04-03T11:48:41;22.70;1.00
37281;DHT22;23169;41.804;12.596;2023-04-03T11:50:56;22.90;1.00
37281;DHT22;23169;41.804;12.596;2023-04-03T11:53:34;22.50;1.00
37281;DHT22;23169;41.804;12.596;2023-04-03T12:04:15;24.20;1.00
37281;DHT22;23169;41.804;12.596;2023-04-03T12:11:58;23.80;1.00
37281;DHT22;23169;41.804;12.596;2023-04-03T12:14:28;23.50;1.00
37281;DHT22;23169;41.804;12.596;2023-04-03T12:16:57;23.80;1.00
37281;DHT22;23169;41.804;12.596;2023-04-03T12:19:36;24.50;1.00
37281;DHT22;23169;41.804;12.596;2023-04-03T12:22:08;25.20;1.00
37281;DHT22;23169;41.804;12.596;2023-04-03T12:24:43;25.80;1.00
37281;DHT22;23169;41.804;12.596;2023-04-03T12:27:28;26.20;1.00
37281;DHT22;23169;41.804;12.596;2023-04-03T12:30:05;25.20;1.00
37281;DHT22;23169;41.804;12.596;2023-04-03T12:35:39;24.90;1.00
37281;DHT22;23169;41.804;12.596;2023-04-03T12:46:23;24.00;1.00
37281;DHT22;23169;41.804;12.596;2023-04-03T12:48:54;24.20;1.00
37281;DHT22;23169;41.804;12.596;2023-04-03T12:54:19;24.20;1.00
37281;DHT22;23169;41.804;12.596;2023-04-03T12:56:49;24.60;1.00
37281;DHT22;23169;41.804;12.596;2023-04-03T12:59:20;25.40;1.00
37281;DHT22;23169;41.804;12.596;2023-04-03T13:01:54;25.70;1.00
37281;DHT22;23169;41.804;12.596;2023-04-03T13:04:26;26.70;1.00
37281;DHT22;23169;41.804;12.596;2023-04-03T13:09:31;26.30;1.00
37281;DHT22;23169;41.804;12.596;2023-04-03T13:12:10;26.40;1.00
37281;DHT22;23169;41.804;12.596;2023-04-03T13:14:55;24.80;1.00
37281;DHT22;23169;41.804;12.596;2023-04-03T13:17:28;25.10;1.00
37281;DHT22;23169;41.804;12.596;2023-04-03T13:20:13;25.20;1.00
37281;DHT22;23169;41.804;12.596;2023-04-03T13:22:49;26.00;1.00
37281;DHT22;23169;41.804;12.596;2023-04-03T13:25:20;28.40;1.00
37281;DHT22;23169;41.804;12.596;2023-04-03T13:27:50;28.00;1.00
37281;DHT22;23169;41.804;12.596;2023-04-03T13:30:26;27.80;1.00
37281;DHT22;23169;41.804;12.596;2023-04-03T13:32:56;27.50;1.00
37281;DHT22;23169;41.804;12.596;2023-04-03T13:35:39;28.20;1.00
37281;DHT22;23169;41.804;12.596;2023-04-03T13:40:52;28.70;1.00
37281;DHT22;23169;41.804;12.596;2023-04-03T13:43:28;28.20;1.00
37281;DHT22;23169;41.804;12.596;2023-04-03T13:48:42;28.00;1.00
37281;DHT22;23169;41.804;12.596;2023-04-03T13:54:01;29.40;1.00
37281;DHT22;23169;41.804;12.596;2023-04-03T13:56:41;28.80;1.00
37281;DHT22;23169;41.804;12.596;2023-04-03T14:04:28;29.30;1.00
37281;DHT22;23169;41.804;12.596;2023-04-03T14:06:58;28.70;1.00
37281;DHT22;23169;41.804;12.596;2023-04-03T14:09:27;28.50;1.00
37281;DHT22;23169;41.804;12.596;2023-04-03T14:12:04;28.90;1.00
37281;DHT22;23169;41.804;12.596;2023-04-03T14:14:35;28.60;1.00
37281;DHT22;23169;41.804;12.596;2023-04-03T14:17:14;28.00;1.00
37281;DHT22;23169;41.804;12.596;2023-04-03T14:19:45;28.40;1.00
37281;DHT22;23169;41.804;12.596;2023-04-03T14:22:20;29.20;1.00
37281;DHT22;23169;41.804;12.596;2023-04-03T14:24:52;29.60;1.00
37281;DHT22;23169;41.804;12.596;2023-04-03T14:27:27;28.90;1.00
37281;DHT22;23169;41.804;12.596;2023-04-03T14:29:58;29.30;1.00
37281;DHT22;23169;41.804;12.596;2023-04-03T14:32:28;29.50;1.00
37281;DHT22;23169;41.804;12.596;2023-04-03T14:34:56;30.00;1.00
37281;DHT22;23169;41.804;12.596;2023-04-03T14:37:28;30.00;1.00
37281;DHT22;23169;41.804;12.596;2023-04-03T14:39:59;30.30;1.00
37281;DHT22;23169;41.804;12.596;2023-04-03T14:42:32;29.60;1.00
37281;DHT22;23169;41.804;12.596;2023-04-03T14:45:04;29.70;1.00
37281;DHT22;23169;41.804;12.596;2023-04-03T14:47:41;29.40;1.00
37281;DHT22;23169;41.804;12.596;2023-04-03T14:50:15;29.40;1.00
37281;DHT22;23169;41.804;12.596;2023-04-03T14:52:44;29.50;1.00
37281;DHT22;23169;41.804;12.596;2023-04-03T14:55:17;29.10;1.00
37281;DHT22;23169;41.804;12.596;2023-04-03T14:57:48;28.40;1.00
37281;DHT22;23169;41.804;12.596;2023-04-03T15:00:18;28.80;1.00
37281;DHT22;23169;41.804;12.596;2023-04-03T15:02:48;28.40;1.00
37281;DHT22;23169;41.804;12.596;2023-04-03T15:05:17;28.50;1.00
37281;DHT22;23169;41.804;12.596;2023-04-03T15:07:54;28.50;1.00
37281;DHT22;23169;41.804;12.596;2023-04-03T15:10:28;28.60;1.00
37281;DHT22;23169;41.804;12.596;2023-04-03T15:12:57;28.80;1.00
37281;DHT22;23169;41.804;12.596;2023-04-03T15:15:28;28.10;1.00
37281;DHT22;23169;41.804;12.596;2023-04-03T15:17:57;28.30;1.00
37281;DHT22;23169;41.804;12.596;2023-04-03T15:20:28;28.60;1.00
37281;DHT22;23169;41.804;12.596;2023-04-03T15:22:59;28.30;1.00
37281;DHT22;23169;41.804;12.596;2023-04-03T15:25:32;28.00;1.00
37281;DHT22;23169;41.804;12.596;2023-04-03T15:28:00;27.90;1.00
37281;DHT22;23169;41.804;12.596;2023-04-03T15:30:30;27.60;1.00
37281;DHT22;23169;41.804;12.596;2023-04-03T15:32:58;28.00;1.00
37281;DHT22;23169;41.804;12.596;2023-04-03T15:35:27;27.70;1.00
37281;DHT22;23169;41.804;12.596;2023-04-03T15:37:56;27.40;1.00
37281;DHT22;23169;41.804;12.596;2023-04-03T15:40:25;27.40;1.00
37281;DHT22;23169;41.804;12.596;2023-04-03T15:42:54;27.40;1.00
37281;DHT22;23169;41.804;12.596;2023-04-03T15:47:52;27.20;1.00
37281;DHT22;23169;41.804;12.596;2023-04-03T15:50:21;26.80;1.00
37281;DHT22;23169;41.804;12.596;2023-04-03T15:52:52;26.40;1.00
37281;DHT22;23169;41.804;12.596;2023-04-03T15:55:24;25.80;1.00
37281;DHT22;23169;41.804;12.596;2023-04-03T15:57:55;25.40;1.00
37281;DHT22;23169;41.804;12.596;2023-04-03T16:00:25;24.90;1.00
37281;DHT22;23169;41.804;12.596;2023-04-03T16:02:58;24.10;1.00
37281;DHT22;23169;41.804;12.596;2023-04-03T16:05:28;23.50;1.00
37281;DHT22;23169;41.804;12.596;2023-04-03T16:07:58;23.30;1.00
37281;DHT22;23169;41.804;12.596;2023-04-03T16:10:29;22.80;1.00
37281;DHT22;23169;41.804;12.596;2023-04-03T16:12:58;22.60;1.00
37281;DHT22;23169;41.804;12.596;2023-04-03T16:15:29;22.20;1.00
37281;DHT22;23169;41.804;12.596;2023-04-03T16:20:29;21.50;1.00
37281;DHT22;23169;41.804;12.596;2023-04-03T16:22:59;21.20;1.00
37281;DHT22;23169;41.804;12.596;2023-04-03T16:25:28;20.90;1.00
37281;DHT22;23169;41.804;12.596;2023-04-03T16:27:59;20.70;1.00
37281;DHT22;23169;41.804;12.596;2023-04-03T16:30:29;20.60;1.00
37281;DHT22;23169;41.804;12.596;2023-04-03T16:32:58;20.20;1.00
37281;DHT22;23169;41.804;12.596;2023-04-03T16:37:59;20.10;1.00
37281;DHT22;23169;41.804;12.596;2023-04-03T16:40:28;20.10;1.00
37281;DHT22;23169;41.804;12.596;2023-04-03T16:45:26;19.90;1.00
37281;DHT22;23169;41.804;12.596;2023-04-03T16:47:55;19.70;1.00
37281;DHT22;23169;41.804;12.596;2023-04-03T16:50:24;19.60;1.00
37281;DHT22;23169;41.804;12.596;2023-04-03T16:52:52;19.50;1.00
37281;DHT22;23169;41.804;12.596;2023-04-03T16:55:21;19.30;1.00
37281;DHT22;23169;41.804;12.596;2023-04-03T17:00:18;19.10;1.00
37281;DHT22;23169;41.804;12.596;2023-04-03T17:02:46;18.90;1.00
37281;DHT22;23169;41.804;12.596;2023-04-03T17:05:15;18.80;1.00
37281;DHT22;23169;41.804;12.596;2023-04-03T17:07:44;18.80;1.00
37281;DHT22;23169;41.804;12.596;2023-04-03T17:10:13;18.70;1.00
37281;DHT22;23169;41.804;12.596;2023-04-03T17:12:43;18.50;1.00
37281;DHT22;23169;41.804;12.596;2023-04-03T17:15:12;18.30;1.00
37281;DHT22;23169;41.804;12.596;2023-04-03T17:17:41;18.00;1.00
37281;DHT22;23169;41.804;12.596;2023-04-03T17:20:11;18.00;1.00
37281;DHT22;23169;41.804;12.596;2023-04-03T17:22:40;17.80;1.00
37281;DHT22;23169;41.804;12.596;2023-04-03T17:25:09;17.30;1.00
37281;DHT22;23169;41.804;12.596;2023-04-03T17:27:39;17.60;1.00
37281;DHT22;23169;41.804;12.596;2023-04-03T17:30:08;17.50;1.00
37281;DHT22;23169;41.804;12.596;2023-04-03T17:32:38;17.30;1.00
37281;DHT22;23169;41.804;12.596;2023-04-03T17:35:06;17.20;1.00
37281;DHT22;23169;41.804;12.596;2023-04-03T17:37:35;17.00;1.00
37281;DHT22;23169;41.804;12.596;2023-04-03T17:40:05;16.80;1.00
37281;DHT22;23169;41.804;12.596;2023-04-03T17:42:34;16.70;1.00
37281;DHT22;23169;41.804;12.596;2023-04-03T17:45:04;16.50;1.00
37281;DHT22;23169;41.804;12.596;2023-04-03T17:47:34;16.40;1.00
37281;DHT22;23169;41.804;12.596;2023-04-03T17:50:03;16.30;1.00
37281;DHT22;23169;41.804;12.596;2023-04-03T17:52:32;16.30;1.00